Time;durP1;ratioP1;P1;durP2;ratioP2;P2;SDS_P1;SDS_P2;PMS_P1;PMS_P2;Temp;Humidity;BMP_temperature;BMP_pressure;BME280_temperature;BME280_humidity;BME280_pressure;Samples;Min_cycle;Max_cycle;Signal;HPM_P1;HPM_P2
2023/11/14 00:02:04;;;;;;;18.67;2.42;;;;;;;;;;5008262;28;20120;-85
2023/11/14 00:04:31;;;;;;;8.85;2.10;;;;;;;;;;4992931;28;20503;-86
2023/11/14 00:07:01;;;;;;;13.05;2.28;;;;;;;;;;5008001;28;20097;-84
2023/11/14 00:09:35;;;;;;;10.55;2.60;;;;;;;;;;5008581;28;20463;-86
2023/11/14 00:12:04;;;;;;;;;;;;;;;;;;5011209;28;20108;-86
2023/11/14 00:14:33;;;;;;;12.05;2.58;;;;;;;;;;4996411;28;19929;-86
2023/11/14 00:17:00;;;;;;;7.65;1.98;;;;;;;;;;5011662;28;20097;-86
2023/11/14 00:19:27;;;;;;;9.48;2.08;;;;;;;;;;4996760;28;20141;-86
2023/11/14 00:21:55;;;;;;;7.53;2.00;;;;;;;;;;4997166;28;20061;-86
2023/11/14 00:24:22;;;;;;;16.88;2.97;;;;;;;;;;4996410;28;20407;-86
2023/11/14 00:26:49;;;;;;;15.70;3.13;;;;;;;;;;5011661;28;20112;-86
2023/11/14 00:29:16;;;;;;;11.98;2.53;;;;;;;;;;4996285;28;20043;-86
2023/11/14 00:31:44;;;;;;;20.42;2.65;;;;;;;;;;4996244;28;20101;-86
2023/11/14 00:34:11;;;;;;;10.85;2.38;;;;;;;;;;5011441;28;20090;-86
2023/11/14 00:36:38;;;;;;;16.85;2.50;;;;;;;;;;5011589;28;20089;-86
2023/11/14 00:39:05;;;;;;;14.80;2.55;;;;;;;;;;4996496;28;20129;-87
2023/11/14 00:41:33;;;;;;;18.90;3.03;;;;;;;;;;5011371;28;20054;-87
2023/11/14 00:44:00;;;;;;;13.68;2.63;;;;;;;;;;5011311;28;20096;-86
2023/11/14 00:46:28;;;;;;;20.60;3.35;;;;;;;;;;4995766;28;20046;-86
2023/11/14 00:48:55;;;;;;;15.07;2.63;;;;;;;;;;5011509;28;20054;-86
2023/11/14 00:51:22;;;;;;;10.55;2.58;;;;;;;;;;5011250;28;20061;-86
2023/11/14 00:53:51;;;;;;;10.07;2.30;;;;;;;;;;4995859;28;20046;-86
2023/11/14 00:56:18;;;;;;;9.30;2.28;;;;;;;;;;5011027;28;20053;-86
2023/11/14 00:58:46;;;;;;;13.95;1.98;;;;;;;;;;4995750;28;20046;-86
2023/11/14 01:01:13;;;;;;;16.38;2.60;;;;;;;;;;4995996;28;20503;-86
2023/11/14 01:03:40;;;;;;;11.93;2.55;;;;;;;;;;4995574;28;20064;-87
2023/11/14 01:06:08;;;;;;;21.70;2.78;;;;;;;;;;5011366;28;20431;-86
2023/11/14 01:08:35;;;;;;;14.90;2.10;;;;;;;;;;4995522;28;20124;-86
2023/11/14 01:11:02;;;;;;;14.48;3.08;;;;;;;;;;5010556;28;20105;-86
2023/11/14 01:13:30;;;;;;;12.25;2.67;;;;;;;;;;5010342;28;20096;-86
2023/11/14 01:15:57;;;;;;;18.50;2.92;;;;;;;;;;5010839;28;20050;-86
2023/11/14 01:18:24;;;;;;;15.10;2.40;;;;;;;;;;5010754;28;20050;-86
2023/11/14 01:20:52;;;;;;;31.27;3.47;;;;;;;;;;5011096;28;20528;-87
2023/11/14 01:23:19;;;;;;;17.75;3.05;;;;;;;;;;5009215;28;20058;-86
2023/11/14 01:25:46;;;;;;;10.65;2.65;;;;;;;;;;5010104;28;20137;-86
2023/11/14 01:28:14;;;;;;;18.50;3.10;;;;;;;;;;5010305;28;20065;-86
2023/11/14 01:30:41;;;;;;;11.48;2.60;;;;;;;;;;5010528;28;20054;-86
2023/11/14 01:33:08;;;;;;;14.27;2.75;;;;;;;;;;5010428;28;20054;-86
2023/11/14 01:35:35;;;;;;;10.93;2.45;;;;;;;;;;5010164;28;20047;-86
2023/11/14 01:38:03;;;;;;;23.58;3.28;;;;;;;;;;5010558;28;20047;-84
2023/11/14 01:40:30;;;;;;;15.70;3.00;;;;;;;;;;4995101;28;20057;-86
2023/11/14 01:43:04;;;;;;;13.35;2.95;;;;;;;;;;5010123;28;20060;-86
2023/11/14 01:45:32;;;;;;;19.88;2.90;;;;;;;;;;5010304;28;20113;-85
2023/11/14 01:47:59;;;;;;;19.15;3.15;;;;;;;;;;4995035;28;20050;-86
2023/11/14 01:50:26;;;;;;;16.83;2.58;;;;;;;;;;4995042;28;20464;-86
2023/11/14 01:52:54;;;;;;;13.48;3.03;;;;;;;;;;5009716;28;20194;-86
2023/11/14 01:55:25;;;;;;;22.48;3.40;;;;;;;;;;5009668;28;20520;-86
2023/11/14 01:57:53;;;;;;;16.33;3.33;;;;;;;;;;5010167;28;20086;-86
2023/11/14 02:00:20;;;;;;;18.98;3.35;;;;;;;;;;4994701;28;20054;-85
2023/11/14 02:02:48;;;;;;;21.70;3.60;;;;;;;;;;5009976;28;20522;-86
2023/11/14 02:05:19;;;;;;;18.75;3.65;;;;;;;;;;5009235;28;20109;-86
2023/11/14 02:07:48;;;;;;;30.13;3.55;;;;;;;;;;5009765;28;20112;-86
2023/11/14 02:10:15;;;;;;;20.27;3.30;;;;;;;;;;5009910;28;20046;-86
2023/11/14 02:12:43;;;;;;;15.50;2.45;;;;;;;;;;5009845;28;20138;-86
2023/11/14 02:15:11;;;;;;;16.27;2.90;;;;;;;;;;4994377;28;20050;-86
2023/11/14 02:17:42;;;;;;;19.48;2.83;;;;;;;;;;5001684;28;20054;-85
2023/11/14 02:20:10;;;;;;;11.65;2.33;;;;;;;;;;4994673;28;20078;-86
2023/11/14 02:22:37;;;;;;;16.70;2.70;;;;;;;;;;4986446;28;20061;-86
2023/11/14 02:25:06;;;;;;;11.55;2.25;;;;;;;;;;4994252;28;20057;-86
2023/11/14 02:27:35;;;;;;;14.68;3.10;;;;;;;;;;4994548;28;20062;-86
2023/11/14 02:30:03;;;;;;;16.80;2.55;;;;;;;;;;5009552;28;20100;-86
2023/11/14 02:32:31;;;;;;;14.18;2.38;;;;;;;;;;5009151;28;20053;-86
2023/11/14 02:34:58;;;;;;;14.40;2.40;;;;;;;;;;4993813;28;20050;-86
2023/11/14 02:37:25;;;;;;;11.75;2.33;;;;;;;;;;4994024;28;20082;-86
2023/11/14 02:39:54;;;;;;;16.02;2.60;;;;;;;;;;5009382;28;20106;-86
2023/11/14 02:42:21;;;;;;;6.55;1.98;;;;;;;;;;4993990;28;20046;-86
2023/11/14 02:44:48;;;;;;;16.17;2.72;;;;;;;;;;4993460;28;20081;-86
2023/11/14 02:47:17;;;;;;;12.80;2.40;;;;;;;;;;4993811;28;20077;-86
2023/11/14 02:50:04;;;;;;;15.90;3.50;;;;;;;;;;5009011;28;20054;-86
2023/11/14 02:52:35;;;;;;;16.33;2.63;;;;;;;;;;5008757;28;20522;-86
2023/11/14 02:55:03;;;;;;;12.35;2.30;;;;;;;;;;5008933;28;20145;-86
2023/11/14 02:57:31;;;;;;;14.23;2.42;;;;;;;;;;5008662;28;20046;-86
2023/11/14 02:59:58;;;;;;;19.00;2.88;;;;;;;;;;5008909;28;20054;-86
2023/11/14 03:02:25;;;;;;;18.45;3.03;;;;;;;;;;4993736;28;20046;-86
2023/11/14 03:04:53;;;;;;;14.85;2.78;;;;;;;;;;5008918;28;20050;-86
2023/11/14 03:07:21;;;;;;;9.60;2.85;;;;;;;;;;5009143;28;20058;-86
2023/11/14 03:09:48;;;;;;;23.95;3.65;;;;;;;;;;5008594;28;20058;-86
2023/11/14 03:12:16;;;;;;;24.67;4.68;;;;;;;;;;5008858;28;20054;-86
2023/11/14 03:14:44;;;;;;;24.00;3.70;;;;;;;;;;5008603;28;20054;-86
2023/11/14 03:17:11;;;;;;;25.95;4.80;;;;;;;;;;5008526;28;20078;-85
2023/11/14 03:19:40;;;;;;;21.92;4.90;;;;;;;;;;4985686;28;20410;-86
2023/11/14 03:22:08;;;;;;;24.52;5.28;;;;;;;;;;5008374;28;20046;-86
2023/11/14 03:24:38;;;;;;;29.45;4.82;;;;;;;;;;4992787;28;20120;-85
2023/11/14 03:27:06;;;;;;;29.40;4.88;;;;;;;;;;5008551;28;20046;-86
2023/11/14 03:29:33;;;;;;;38.35;4.97;;;;;;;;;;5008494;28;20062;-85
2023/11/14 03:32:00;;;;;;;22.63;4.28;;;;;;;;;;5008405;28;20042;-86
2023/11/14 03:34:28;;;;;;;21.48;4.85;;;;;;;;;;5008347;28;20133;-86
2023/11/14 03:36:56;;;;;;;24.33;4.35;;;;;;;;;;4992971;28;20506;-86
2023/11/14 03:39:23;;;;;;;39.65;5.20;;;;;;;;;;5008264;28;20248;-86
2023/11/14 03:41:51;;;;;;;35.30;4.38;;;;;;;;;;5008243;28;20062;-86
2023/11/14 03:44:18;;;;;;;23.10;3.60;;;;;;;;;;5007970;28;20050;-86
2023/11/14 03:46:45;;;;;;;26.02;3.83;;;;;;;;;;5010073;28;20127;-86
2023/11/14 03:49:13;;;;;;;19.17;2.95;;;;;;;;;;5012136;28;20550;-87
2023/11/14 03:51:40;;;;;;;22.67;2.90;;;;;;;;;;5012258;28;20093;-86
2023/11/14 03:54:07;;;;;;;24.20;3.03;;;;;;;;;;5012130;28;20050;-86
2023/11/14 03:56:35;;;;;;;17.02;2.97;;;;;;;;;;5011841;28;20050;-85
2023/11/14 03:59:02;;;;;;;18.63;3.10;;;;;;;;;;5012285;28;20104;-87
2023/11/14 04:01:30;;;;;;;16.50;2.97;;;;;;;;;;5011993;28;20054;-86
2023/11/14 04:03:57;;;;;;;25.35;3.28;;;;;;;;;;5011282;28;20057;-86
2023/11/14 04:06:24;;;;;;;26.58;4.20;;;;;;;;;;4996785;28;20053;-86
2023/11/14 04:08:51;;;;;;;18.70;2.35;;;;;;;;;;4996588;28;20050;-87
2023/11/14 04:11:19;;;;;;;22.13;3.30;;;;;;;;;;5004073;28;20050;-86
2023/11/14 04:13:47;;;;;;;21.67;2.88;;;;;;;;;;5011868;28;20057;-86
2023/11/14 04:16:15;;;;;;;15.50;2.40;;;;;;;;;;5011793;28;20050;-86
2023/11/14 04:18:42;;;;;;;17.73;2.78;;;;;;;;;;5011712;28;20046;-87
2023/11/14 04:21:10;;;;;;;21.05;3.13;;;;;;;;;;5013493;28;20404;-86
2023/11/14 04:23:37;;;;;;;18.23;3.03;;;;;;;;;;5012591;28;20165;-86
2023/11/14 04:26:04;;;;;;;20.13;3.10;;;;;;;;;;4996714;28;20490;-88
2023/11/14 04:28:32;;;;;;;17.15;3.03;;;;;;;;;;5011732;28;20085;-87
2023/11/14 04:30:59;;;;;;;26.17;2.70;;;;;;;;;;5011597;28;20042;-87
2023/11/14 04:33:26;;;;;;;19.35;3.35;;;;;;;;;;4996296;28;20116;-87
2023/11/14 04:35:53;;;;;;;17.27;2.63;;;;;;;;;;5011674;28;20054;-87
2023/11/14 04:38:22;;;;;;;15.60;3.00;;;;;;;;;;4996399;28;20407;-87
2023/11/14 04:40:49;;;;;;;25.75;3.00;;;;;;;;;;5011767;28;20085;-87
2023/11/14 04:43:16;;;;;;;18.83;2.95;;;;;;;;;;4996196;28;20054;-87
2023/11/14 04:45:44;;;;;;;22.23;3.47;;;;;;;;;;5011031;28;20058;-87
2023/11/14 04:48:11;;;;;;;20.77;3.15;;;;;;;;;;5011520;28;20051;-87
2023/11/14 04:50:39;;;;;;;14.98;3.17;;;;;;;;;;5011539;28;20488;-87
2023/11/14 04:53:06;;;;;;;11.55;2.60;;;;;;;;;;4996168;28;20077;-87
2023/11/14 04:55:33;;;;;;;16.73;2.72;;;;;;;;;;5011321;28;20085;-87
2023/11/14 04:58:02;;;;;;;15.48;2.88;;;;;;;;;;5010806;28;20108;-87
2023/11/14 05:00:29;;;;;;;23.75;4.25;;;;;;;;;;4987730;28;20109;-87
2023/11/14 05:02:56;;;;;;;18.33;2.80;;;;;;;;;;5011290;28;20077;-87
2023/11/14 05:05:24;;;;;;;16.98;3.13;;;;;;;;;;5011241;28;20517;-88
2023/11/14 05:07:51;;;;;;;14.00;2.15;;;;;;;;;;5010796;28;20050;-87
2023/11/14 05:10:18;;;;;;;24.38;3.50;;;;;;;;;;4996193;28;20050;-87
2023/11/14 05:12:46;;;;;;;20.15;3.00;;;;;;;;;;5011098;28;20062;-86
2023/11/14 05:15:13;;;;;;;19.58;3.03;;;;;;;;;;4995596;28;20054;-87
2023/11/14 05:17:40;;;;;;;15.30;2.38;;;;;;;;;;5011029;28;20046;-87
2023/11/14 05:20:08;;;;;;;19.55;2.95;;;;;;;;;;5010997;28;20060;-87
2023/11/14 05:22:35;;;;;;;26.60;3.95;;;;;;;;;;4995528;28;20050;-87
2023/11/14 05:25:03;;;;;;;16.58;2.97;;;;;;;;;;4995365;28;20046;-87
2023/11/14 05:27:30;;;;;;;17.00;3.40;;;;;;;;;;5010442;28;20483;-86
2023/11/14 05:29:57;;;;;;;25.17;3.80;;;;;;;;;;5011092;28;20054;-87
2023/11/14 05:32:25;;;;;;;20.55;3.28;;;;;;;;;;5010564;28;20054;-87
2023/11/14 05:34:53;;;;;;;20.02;3.00;;;;;;;;;;5010510;28;20065;-87
2023/11/14 05:37:20;;;;;;;17.95;3.03;;;;;;;;;;5010680;28;20053;-87
2023/11/14 05:39:47;;;;;;;22.48;3.13;;;;;;;;;;4995438;28;20454;-86
2023/11/14 05:42:15;;;;;;;18.58;2.42;;;;;;;;;;4995427;28;20050;-86
2023/11/14 05:44:43;;;;;;;20.08;3.78;;;;;;;;;;5010207;28;20474;-87
2023/11/14 05:47:10;;;;;;;17.08;3.50;;;;;;;;;;5010400;28;20047;-87
2023/11/14 05:49:37;;;;;;;21.10;3.15;;;;;;;;;;5010325;28;20559;-86
2023/11/14 05:52:05;;;;;;;21.48;3.10;;;;;;;;;;5010518;28;20087;-85
2023/11/14 05:54:32;;;;;;;23.63;3.20;;;;;;;;;;5009671;28;20462;-86
2023/11/14 05:57:04;;;;;;;19.02;2.97;;;;;;;;;;5009584;28;20046;-86
2023/11/14 05:59:31;;;;;;;17.17;3.05;;;;;;;;;;4994781;28;20089;-87
2023/11/14 06:01:59;;;;;;;18.98;2.95;;;;;;;;;;5010257;28;20170;-86
2023/11/14 06:04:26;;;;;;;16.05;3.30;;;;;;;;;;5009400;28;20480;-85
2023/11/14 06:06:58;;;;;;;21.80;2.65;;;;;;;;;;4994706;28;20054;-87
2023/11/14 06:09:25;;;;;;;11.10;2.55;;;;;;;;;;5010250;28;20104;-85
2023/11/14 06:11:52;;;;;;;18.20;3.33;;;;;;;;;;5010233;28;20571;-86
2023/11/14 06:14:20;;;;;;;23.45;3.78;;;;;;;;;;5010022;28;20046;-87
2023/11/14 06:16:47;;;;;;;16.55;2.70;;;;;;;;;;4994715;28;20051;-85
2023/11/14 06:19:15;;;;;;;14.20;2.55;;;;;;;;;;4994484;28;20108;-86
2023/11/14 06:21:43;;;;;;;25.67;3.70;;;;;;;;;;5009580;28;20097;-85
2023/11/14 06:24:10;;;;;;;21.60;3.38;;;;;;;;;;5009422;28;20061;-86
2023/11/14 06:26:37;;;;;;;19.65;3.03;;;;;;;;;;4994256;28;20050;-86
2023/11/14 06:29:04;;;;;;;27.45;7.88;;;;;;;;;;5009592;28;20085;-86
2023/11/14 06:31:32;;;;;;;36.80;12.30;;;;;;;;;;5009348;28;20406;-86
2023/11/14 06:33:59;;;;;;;40.65;14.35;;;;;;;;;;5008982;28;20050;-86
2023/11/14 06:36:26;;;;;;;25.35;6.43;;;;;;;;;;5009167;28;20050;-86
2023/11/14 06:38:53;;;;;;;19.80;4.20;;;;;;;;;;5009503;28;20092;-86
2023/11/14 06:41:21;;;;;;;20.38;5.30;;;;;;;;;;5009240;28;20050;-86
2023/11/14 06:43:48;;;;;;;16.77;3.90;;;;;;;;;;4993773;28;20141;-86
2023/11/14 06:46:16;;;;;;;18.85;3.28;;;;;;;;;;5009126;28;20057;-87
2023/11/14 06:48:43;;;;;;;15.68;2.97;;;;;;;;;;5009295;28;20054;-86
2023/11/14 06:51:11;;;;;;;15.02;3.08;;;;;;;;;;5009314;28;20077;-86
2023/11/14 06:53:38;;;;;;;21.92;2.85;;;;;;;;;;5000827;28;20050;-86
2023/11/14 06:56:05;;;;;;;19.40;2.97;;;;;;;;;;5009295;28;20109;-87
2023/11/14 06:58:34;;;;;;;11.93;3.05;;;;;;;;;;5009216;28;20054;-87
2023/11/14 07:01:02;;;;;;;18.63;2.88;;;;;;;;;;4993991;28;20518;-86
2023/11/14 07:03:31;;;;;;;22.08;3.72;;;;;;;;;;5009055;28;20054;-86
2023/11/14 07:05:58;;;;;;;21.73;3.58;;;;;;;;;;4993879;28;20422;-86
2023/11/14 07:08:25;;;;;;;17.15;3.05;;;;;;;;;;5009233;28;20058;-86
2023/11/14 07:10:53;;;;;;;19.55;3.22;;;;;;;;;;4993930;28;20057;-86
2023/11/14 07:13:20;;;;;;;19.20;2.97;;;;;;;;;;5008956;28;20047;-87
2023/11/14 07:15:47;;;;;;;18.90;3.53;;;;;;;;;;5008769;28;20132;-87
2023/11/14 07:18:15;;;;;;;14.52;2.72;;;;;;;;;;5008925;28;20100;-86
2023/11/14 07:20:42;;;;;;;11.35;2.70;;;;;;;;;;5009187;28;20146;-85
2023/11/14 07:23:11;;;;;;;20.92;3.08;;;;;;;;;;5009368;28;20046;-86
2023/11/14 07:25:43;;;;;;;15.57;2.70;;;;;;;;;;4986580;28;20089;-85
2023/11/14 07:28:12;;;;;;;19.25;3.30;;;;;;;;;;4993412;28;20530;-86
2023/11/14 07:30:39;;;;;;;16.13;3.05;;;;;;;;;;5008959;28;20054;-86
2023/11/14 07:33:08;;;;;;;18.95;3.35;;;;;;;;;;5008702;28;20043;-85
2023/11/14 07:35:37;;;;;;;19.92;3.28;;;;;;;;;;4993334;28;20082;-86
2023/11/14 07:38:05;;;;;;;16.00;2.90;;;;;;;;;;5008568;28;20085;-86
2023/11/14 07:40:33;;;;;;;14.75;3.00;;;;;;;;;;4993165;28;20141;-86
2023/11/14 07:43:03;;;;;;;19.67;3.97;;;;;;;;;;5008715;28;20470;-85
2023/11/14 07:45:30;;;;;;;15.55;3.50;;;;;;;;;;5008462;28;20460;-86
2023/11/14 07:47:58;;;;;;;15.18;2.95;;;;;;;;;;5009131;28;20046;-86
2023/11/14 07:50:26;;;;;;;18.83;2.83;;;;;;;;;;4993424;28;20058;-86
2023/11/14 07:52:53;;;;;;;20.13;2.58;;;;;;;;;;5008698;28;20480;-86
2023/11/14 07:55:21;;;;;;;24.17;3.58;;;;;;;;;;5008166;28;20046;-86
2023/11/14 07:57:48;;;;;;;21.60;3.47;;;;;;;;;;5008583;28;20561;-86
2023/11/14 08:00:16;;;;;;;13.30;3.10;;;;;;;;;;4993700;28;20061;-86
2023/11/14 08:02:44;;;;;;;17.10;2.78;;;;;;;;;;4992346;28;20089;-86
2023/11/14 08:05:11;;;;;;;12.15;2.60;;;;;;;;;;5008334;28;20096;-86
2023/11/14 08:07:38;;;;;;;14.95;3.45;;;;;;;;;;4985046;28;20054;-86
2023/11/14 08:10:06;;;;;;;14.05;3.00;;;;;;;;;;5008343;28;20054;-86
2023/11/14 08:12:35;;;;;;;12.02;2.80;;;;;;;;;;5008406;28;20042;-87
2023/11/14 08:15:03;;;;;;;15.57;2.60;;;;;;;;;;4993333;28;20046;-85
2023/11/14 08:17:30;;;;;;;17.40;2.80;;;;;;;;;;5008151;28;20061;-86
2023/11/14 08:19:58;;;;;;;14.18;2.55;;;;;;;;;;5008353;28;20054;-86
2023/11/14 08:22:25;;;;;;;14.50;2.95;;;;;;;;;;5008121;28;20135;-86
2023/11/14 08:24:53;;;;;;;15.23;2.58;;;;;;;;;;5008193;28;20244;-86
2023/11/14 08:27:20;;;;;;;17.67;3.08;;;;;;;;;;4993021;28;20089;-86
2023/11/14 08:29:49;;;;;;;17.60;2.60;;;;;;;;;;4993254;28;20054;-86
2023/11/14 08:32:16;;;;;;;11.77;2.95;;;;;;;;;;4994241;28;20050;-86
2023/11/14 08:34:44;;;;;;;16.73;3.15;;;;;;;;;;4996153;28;20152;-85
2023/11/14 08:37:11;;;;;;;13.65;2.75;;;;;;;;;;5011679;28;20104;-86
2023/11/14 08:39:41;;;;;;;17.30;2.63;;;;;;;;;;5011410;28;20578;-86
2023/11/14 08:42:11;;;;;;;17.42;3.22;;;;;;;;;;4996595;28;20054;-86
2023/11/14 08:44:40;;;;;;;15.50;3.30;;;;;;;;;;5011458;28;20050;-86
2023/11/14 08:47:07;;;;;;;12.20;3.45;;;;;;;;;;5011623;28;20050;-86
2023/11/14 08:49:34;;;;;;;12.35;2.85;;;;;;;;;;5011335;28;20054;-85
2023/11/14 08:52:02;;;;;;;14.18;2.47;;;;;;;;;;5011465;28;20565;-85
2023/11/14 08:54:29;;;;;;;20.67;3.13;;;;;;;;;;4996000;28;20054;-86
2023/11/14 08:56:57;;;;;;;19.30;2.95;;;;;;;;;;5011599;28;20050;-86
2023/11/14 08:59:24;;;;;;;11.32;2.92;;;;;;;;;;5011390;28;20086;-86
2023/11/14 09:01:51;;;;;;;16.48;3.00;;;;;;;;;;4995849;28;20054;-85
2023/11/14 09:04:19;;;;;;;13.93;3.10;;;;;;;;;;5010669;28;20134;-85
2023/11/14 09:06:46;;;;;;;16.30;4.15;;;;;;;;;;4995774;28;20046;-84
2023/11/14 09:09:20;;;;;;;19.75;4.32;;;;;;;;;;4995937;28;20554;-86
2023/11/14 09:11:49;;;;;;;12.30;3.53;;;;;;;;;;5010965;28;20141;-86
2023/11/14 09:14:16;;;;;;;16.92;3.72;;;;;;;;;;5010650;28;20097;-85
2023/11/14 09:16:44;;;;;;;13.43;2.75;;;;;;;;;;5010521;28;20065;-85
2023/11/14 09:19:12;;;;;;;16.15;2.90;;;;;;;;;;5010742;28;20078;-85
2023/11/14 09:21:39;;;;;;;15.85;2.75;;;;;;;;;;5002878;28;20499;-85
2023/11/14 09:24:07;;;;;;;14.02;3.53;;;;;;;;;;5010798;28;20193;-85
2023/11/14 09:26:37;;;;;;;13.02;2.83;;;;;;;;;;4995409;28;20050;-85
2023/11/14 09:29:05;;;;;;;20.60;3.17;;;;;;;;;;4987505;28;20115;-86
2023/11/14 09:31:33;;;;;;;10.32;2.22;;;;;;;;;;5010549;28;20050;-86
2023/11/14 09:34:00;;;;;;;11.32;2.78;;;;;;;;;;5010607;28;20042;-86
2023/11/14 09:36:28;;;;;;;18.35;2.92;;;;;;;;;;5010261;28;20054;-86
2023/11/14 09:38:55;;;;;;;8.43;2.03;;;;;;;;;;4995415;28;20051;-85
2023/11/14 09:41:24;;;;;;;10.98;2.63;;;;;;;;;;4995113;28;20076;-86
2023/11/14 09:43:55;;;;;;;13.82;2.65;;;;;;;;;;5008771;28;20450;-85
2023/11/14 09:46:22;;;;;;;18.95;2.92;;;;;;;;;;5010016;28;20073;-85
2023/11/14 09:48:50;;;;;;;12.00;2.42;;;;;;;;;;5010359;28;20046;-85
2023/11/14 09:51:19;;;;;;;9.90;2.38;;;;;;;;;;5009913;28;20062;-84
2023/11/14 09:53:48;;;;;;;12.63;2.63;;;;;;;;;;5009673;28;20139;-85
2023/11/14 09:56:15;;;;;;;12.55;2.50;;;;;;;;;;5009991;28;20084;-85
2023/11/14 09:58:43;;;;;;;14.07;2.45;;;;;;;;;;4994886;28;20047;-85
2023/11/14 10:01:12;;;;;;;9.45;3.05;;;;;;;;;;4994704;28;20054;-84
2023/11/14 10:03:41;;;;;;;12.07;2.15;;;;;;;;;;5009879;28;20046;-84
2023/11/14 10:06:08;;;;;;;11.95;2.83;;;;;;;;;;5009901;28;20054;-85
2023/11/14 10:08:39;;;;;;;10.10;2.17;;;;;;;;;;4994143;28;20069;-84
2023/11/14 10:11:18;;;;;;;12.20;2.50;;;;;;;;;;4994494;28;20069;-84
2023/11/14 10:13:47;;;;;;;9.85;2.10;;;;;;;;;;5009345;28;20051;-84
2023/11/14 10:16:16;;;;;;;11.82;2.47;;;;;;;;;;5009495;28;20050;-84
2023/11/14 10:18:44;;;;;;;17.10;2.88;;;;;;;;;;4995866;28;20097;-85
2023/11/14 10:21:23;;;;;;;15.85;2.78;;;;;;;;;;5010884;28;20447;-84
2023/11/14 10:23:51;;;;;;;13.65;2.45;;;;;;;;;;4988244;28;20051;-84
2023/11/14 10:26:18;;;;;;;12.60;2.28;;;;;;;;;;5009095;28;20076;-84
2023/11/14 10:28:54;;;;;;;13.05;3.03;;;;;;;;;;5009320;28;20129;-85
2023/11/14 10:31:37;;;;;;;10.60;2.40;;;;;;;;;;5009256;28;20050;-85
2023/11/14 10:34:06;;;;;;;12.40;2.20;;;;;;;;;;5009035;28;20050;-84
2023/11/14 10:36:47;;;;;;;18.77;3.13;;;;;;;;;;5008525;28;20057;-85
2023/11/14 10:39:15;;;;;;;14.25;2.67;;;;;;;;;;5009424;28;20137;-85
2023/11/14 10:41:42;;;;;;;18.40;2.72;;;;;;;;;;5009100;28;20050;-85
2023/11/14 10:44:10;;;;;;;17.88;2.50;;;;;;;;;;4993607;28;20450;-84
2023/11/14 10:46:38;;;;;;;13.85;2.63;;;;;;;;;;5008735;28;20046;-85
2023/11/14 10:49:09;;;;;;;18.50;3.05;;;;;;;;;;5008761;28;20053;-84
2023/11/14 10:51:37;;;;;;;12.07;2.15;;;;;;;;;;5008796;28;20054;-84
2023/11/14 10:54:06;;;;;;;10.50;2.53;;;;;;;;;;5008823;28;20088;-86
2023/11/14 10:56:37;;;;;;;15.00;2.25;;;;;;;;;;4993032;28;20150;-85
2023/11/14 10:59:18;;;;;;;12.63;2.45;;;;;;;;;;5007332;28;20073;-84
2023/11/14 11:01:47;;;;;;;10.80;2.45;;;;;;;;;;5008864;28;20054;-85
2023/11/14 11:04:16;;;;;;;17.33;2.63;;;;;;;;;;5008436;28;20054;-84
2023/11/14 11:06:46;;;;;;;13.10;2.15;;;;;;;;;;5008450;28;20054;-85
2023/11/14 11:09:18;;;;;;;15.82;3.40;;;;;;;;;;4993444;28;20096;-85
2023/11/14 11:11:50;;;;;;;13.98;2.47;;;;;;;;;;5008584;28;20065;-85
2023/11/14 11:14:19;;;;;;;13.75;2.50;;;;;;;;;;5008336;28;20551;-85
2023/11/14 11:16:51;;;;;;;14.63;2.97;;;;;;;;;;5008560;28;20050;-86
2023/11/14 11:19:23;;;;;;;9.32;2.35;;;;;;;;;;5008306;28;20137;-85
2023/11/14 11:22:00;;;;;;;16.25;2.90;;;;;;;;;;5008461;28;20487;-85
2023/11/14 11:24:28;;;;;;;14.95;2.75;;;;;;;;;;4992949;28;20509;-84
2023/11/14 11:27:20;;;;;;;8.77;1.98;;;;;;;;;;5006977;28;20054;-86
2023/11/14 11:29:50;;;;;;;11.98;2.45;;;;;;;;;;5001522;28;20050;-85
2023/11/14 11:32:30;;;;;;;12.18;2.10;;;;;;;;;;5008439;28;20050;-85
2023/11/14 11:35:17;;;;;;;8.23;2.10;;;;;;;;;;5008238;28;20093;-85
2023/11/14 11:38:09;;;;;;;13.18;2.17;;;;;;;;;;5008428;28;20053;-85
2023/11/14 11:40:57;;;;;;;10.57;1.63;;;;;;;;;;4993177;28;20051;-85
2023/11/14 11:43:26;;;;;;;6.53;1.77;;;;;;;;;;4988481;28;20409;-85
2023/11/14 11:45:53;;;;;;;8.05;2.00;;;;;;;;;;4993266;28;20089;-85
2023/11/14 11:48:26;;;;;;;9.98;2.05;;;;;;;;;;4985231;28;20043;-85
2023/11/14 11:50:54;;;;;;;13.88;2.97;;;;;;;;;;5007958;28;20545;-85
2023/11/14 11:53:39;;;;;;;7.25;2.03;;;;;;;;;;4993117;28;20093;-85
2023/11/14 11:56:26;;;;;;;9.27;1.85;;;;;;;;;;4993233;28;20054;-86
2023/11/14 11:58:57;;;;;;;9.85;2.10;;;;;;;;;;4982147;28;20061;-85
2023/11/14 12:01:24;;;;;;;12.32;2.00;;;;;;;;;;5008133;28;20384;-85
2023/11/14 12:03:52;;;;;;;9.60;1.88;;;;;;;;;;4993341;28;20112;-85
2023/11/14 12:06:20;;;;;;;7.25;1.80;;;;;;;;;;5007996;28;20457;-85
2023/11/14 12:08:47;;;;;;;9.80;2.17;;;;;;;;;;5011979;28;20043;-85
2023/11/14 12:11:15;;;;;;;7.70;1.88;;;;;;;;;;5011989;28;20059;-85
2023/11/14 12:13:46;;;;;;;7.50;1.77;;;;;;;;;;5003904;28;20048;-85
2023/11/14 12:16:13;;;;;;;10.60;1.80;;;;;;;;;;5012525;28;20062;-85
2023/11/14 12:18:42;;;;;;;8.20;1.90;;;;;;;;;;5011821;28;20077;-85
2023/11/14 12:21:09;;;;;;;7.43;2.20;;;;;;;;;;4997172;28;20046;-85
2023/11/14 12:23:36;;;;;;;10.88;1.88;;;;;;;;;;4996526;28;20073;-85
2023/11/14 12:26:03;;;;;;;10.25;2.13;;;;;;;;;;5011291;28;20495;-86
2023/11/14 12:28:41;;;;;;;4.75;1.30;;;;;;;;;;4996214;28;20129;-85
2023/11/14 12:31:11;;;;;;;9.57;2.20;;;;;;;;;;5011846;28;20464;-85
2023/11/14 12:33:57;;;;;;;9.88;1.98;;;;;;;;;;5011574;28;20141;-85
2023/11/14 12:36:25;;;;;;;7.60;1.65;;;;;;;;;;5011216;28;20050;-84
2023/11/14 12:38:53;;;;;;;5.43;1.60;;;;;;;;;;5011249;28;20082;-84
2023/11/14 12:41:26;;;;;;;10.20;1.42;;;;;;;;;;5011304;28;20046;-85
2023/11/14 12:43:54;;;;;;;4.10;1.30;;;;;;;;;;5011156;28;20050;-85
2023/11/14 12:46:35;;;;;;;7.30;1.75;;;;;;;;;;4996083;28;20058;-84
2023/11/14 12:49:10;;;;;;;6.03;1.50;;;;;;;;;;5011066;28;20050;-84
2023/11/14 12:51:44;;;;;;;6.97;1.63;;;;;;;;;;5010656;28;20053;-83
2023/11/14 12:54:13;;;;;;;7.38;2.05;;;;;;;;;;5011089;28;20050;-85
2023/11/14 12:56:40;;;;;;;13.50;2.00;;;;;;;;;;4996004;28;20061;-84
2023/11/14 12:59:08;;;;;;;9.88;1.92;;;;;;;;;;5011183;28;20051;-85
2023/11/14 13:01:36;;;;;;;11.65;1.70;;;;;;;;;;4995492;28;20551;-84
2023/11/14 13:04:07;;;;;;;5.90;1.60;;;;;;;;;;4988045;28;20050;-85
2023/11/14 13:06:41;;;;;;;11.80;1.95;;;;;;;;;;4987676;28;20070;-85
2023/11/14 13:09:10;;;;;;;7.60;1.90;;;;;;;;;;5010820;28;20057;-84
2023/11/14 13:11:39;;;;;;;8.13;1.90;;;;;;;;;;5010558;28;20470;-85
2023/11/14 13:14:07;;;;;;;10.18;2.10;;;;;;;;;;5010722;28;20495;-84
2023/11/14 13:16:38;;;;;;;9.75;1.67;;;;;;;;;;5011043;28;20054;-84
2023/11/14 13:19:06;;;;;;;5.55;1.50;;;;;;;;;;5002894;28;20050;-83
2023/11/14 13:21:33;;;;;;;11.15;1.92;;;;;;;;;;4995492;28;20148;-85
2023/11/14 13:24:01;;;;;;;10.63;2.22;;;;;;;;;;5010616;28;20050;-84
2023/11/14 13:26:30;;;;;;;8.68;1.95;;;;;;;;;;5009843;28;20050;-84
2023/11/14 13:28:57;;;;;;;5.28;1.60;;;;;;;;;;4995239;28;20078;-84
2023/11/14 13:31:24;;;;;;;9.18;2.08;;;;;;;;;;4995244;28;20154;-84
2023/11/14 13:33:52;;;;;;;7.22;1.67;;;;;;;;;;5010161;28;20070;-85
2023/11/14 13:36:21;;;;;;;14.80;2.38;;;;;;;;;;5010208;28;20460;-84
2023/11/14 13:38:48;;;;;;;7.40;1.85;;;;;;;;;;5010078;28;20487;-85
2023/11/14 13:41:16;;;;;;;14.13;2.30;;;;;;;;;;4994889;28;20058;-85
2023/11/14 13:43:43;;;;;;;11.00;1.98;;;;;;;;;;5009956;28;20403;-85
2023/11/14 13:46:13;;;;;;;5.40;1.67;;;;;;;;;;4994967;28;20133;-85
2023/11/14 13:48:53;;;;;;;10.40;2.33;;;;;;;;;;5008609;28;20491;-84
2023/11/14 13:51:22;;;;;;;8.40;1.65;;;;;;;;;;5009712;28;20507;-85
2023/11/14 13:53:50;;;;;;;8.73;1.60;;;;;;;;;;5001784;28;20058;-85
2023/11/14 13:56:18;;;;;;;8.85;1.73;;;;;;;;;;4994843;28;20051;-84
2023/11/14 13:58:46;;;;;;;6.32;1.83;;;;;;;;;;4994764;28;20050;-85
2023/11/14 14:01:16;;;;;;;9.02;1.65;;;;;;;;;;5010130;28;20054;-83
2023/11/14 14:03:44;;;;;;;3.63;1.13;;;;;;;;;;5009505;28;20473;-84
2023/11/14 14:06:12;;;;;;;6.40;1.40;;;;;;;;;;4994380;28;20050;-85
2023/11/14 14:08:41;;;;;;;8.38;1.50;;;;;;;;;;5009297;28;20562;-84
2023/11/14 14:11:11;;;;;;;4.95;1.35;;;;;;;;;;4994744;28;20565;-85
2023/11/14 14:13:39;;;;;;;8.30;1.55;;;;;;;;;;5001185;28;20053;-84
2023/11/14 14:16:11;;;;;;;10.20;1.98;;;;;;;;;;5009540;28;20515;-84
2023/11/14 14:18:40;;;;;;;7.72;2.03;;;;;;;;;;5001295;28;20112;-84
2023/11/14 14:21:07;;;;;;;5.82;1.67;;;;;;;;;;4994382;28;20050;-84
2023/11/14 14:23:35;;;;;;;5.55;1.50;;;;;;;;;;4994115;28;20120;-85
2023/11/14 14:26:05;;;;;;;4.00;1.35;;;;;;;;;;5009107;28;20501;-85
2023/11/14 14:28:35;;;;;;;9.10;1.55;;;;;;;;;;5009161;28;20054;-85
2023/11/14 14:31:07;;;;;;;8.32;2.17;;;;;;;;;;5008000;28;20141;-85
2023/11/14 14:33:35;;;;;;;6.28;2.00;;;;;;;;;;5008720;28;20077;-84
2023/11/14 14:36:02;;;;;;;5.70;2.03;;;;;;;;;;5009216;28;20172;-84
2023/11/14 14:38:30;;;;;;;13.38;2.67;;;;;;;;;;4993821;28;20101;-84
2023/11/14 14:41:00;;;;;;;8.98;2.10;;;;;;;;;;4994000;28;20050;-84
2023/11/14 14:43:29;;;;;;;7.38;1.83;;;;;;;;;;5008669;28;20120;-84